Time;durP1;ratioP1;P1;durP2;ratioP2;P2;SDS_P1;SDS_P2;PMS_P1;PMS_P2;Temp;Humidity;BMP_temperature;BMP_pressure;BME280_temperature;BME280_humidity;BME280_pressure;Samples;Min_cycle;Max_cycle;Signal;HPM_P1;HPM_P2
2023/10/31 00:02:16;;;;;;;1.67;0.65;;;19.60;21.50;;;;;;5115380;28;20032;-58
2023/10/31 00:04:41;;;;;;;1.20;0.70;;;19.60;22.10;;;;;;5115745;28;20023;-57
2023/10/31 00:07:07;;;;;;;1.23;0.75;;;19.50;22.40;;;;;;5115523;28;20482;-57
2023/10/31 00:09:33;;;;;;;0.70;0.60;;;19.50;22.20;;;;;;5115822;28;20030;-57
2023/10/31 00:11:59;;;;;;;0.85;0.50;;;19.50;22.30;;;;;;5115816;28;20028;-57
2023/10/31 00:14:25;;;;;;;2.25;0.82;;;19.80;19.50;;;;;;5115355;28;20027;-57
2023/10/31 00:16:51;;;;;;;4.70;0.85;;;19.80;20.90;;;;;;5115309;28;20126;-57
2023/10/31 00:19:17;;;;;;;2.55;0.95;;;19.60;24.00;;;;;;5115602;28;20039;-57
2023/10/31 00:21:43;;;;;;;2.53;0.60;;;19.70;20.20;;;;;;5115157;28;20047;-57
2023/10/31 00:24:08;;;;;;;2.08;0.57;;;19.70;20.70;;;;;;5115539;28;20020;-57
2023/10/31 00:26:34;;;;;;;1.05;0.52;;;20.10;18.90;;;;;;5115442;28;20488;-57
2023/10/31 00:29:00;;;;;;;1.33;0.70;;;20.10;20.60;;;;;;5115371;28;20035;-57
2023/10/31 00:31:26;;;;;;;2.97;0.60;;;20.20;18.00;;;;;;5115552;28;20047;-57
2023/10/31 00:33:51;;;;;;;2.38;0.73;;;20.20;19.40;;;;;;5097156;28;20027;-57
2023/10/31 00:36:17;;;;;;;2.42;0.68;;;20.30;21.00;;;;;;5097078;28;20540;-57
2023/10/31 00:38:43;;;;;;;2.60;0.80;;;20.10;19.90;;;;;;5115434;28;20027;-57
2023/10/31 00:41:09;;;;;;;1.63;0.65;;;20.10;19.30;;;;;;5097164;28;20039;-57
2023/10/31 00:43:35;;;;;;;1.95;0.50;;;20.10;18.30;;;;;;5115318;28;20483;-57
2023/10/31 00:46:03;;;;;;;1.95;0.50;;;20.20;19.50;;;;;;5116753;28;20106;-57
2023/10/31 00:48:29;;;;;;;1.60;0.80;;;20.20;18.10;;;;;;5119564;28;20051;-57
2023/10/31 00:50:55;;;;;;;4.20;0.88;;;20.10;20.00;;;;;;5118966;28;20035;-57
2023/10/31 00:53:20;;;;;;;2.03;0.80;;;20.10;19.80;;;;;;5119170;28;20362;-57
2023/10/31 00:55:46;;;;;;;0.50;0.47;;;20.00;19.50;;;;;;5119091;28;20023;-57
2023/10/31 00:58:12;;;;;;;5.15;1.13;;;20.10;18.40;;;;;;5100275;28;20540;-57
2023/10/31 01:00:38;;;;;;;1.30;0.80;;;20.00;21.10;;;;;;5118880;28;20115;-57
2023/10/31 01:03:04;;;;;;;3.78;1.58;;;20.00;19.80;;;;;;5118861;28;20044;-57
2023/10/31 01:05:30;;;;;;;3.33;1.02;;;19.90;22.00;;;;;;5118753;28;20023;-57
2023/10/31 01:07:57;;;;;;;3.03;1.67;;;19.80;20.30;;;;;;5118913;28;20054;-57
2023/10/31 01:10:22;;;;;;;2.95;1.08;;;19.90;20.20;;;;;;5118851;28;20048;-57
2023/10/31 01:12:48;;;;;;;3.67;1.50;;;19.90;19.20;;;;;;5118495;28;20039;-57
2023/10/31 01:15:14;;;;;;;4.38;2.20;;;19.80;22.10;;;;;;5118502;28;20067;-57
2023/10/31 01:17:40;;;;;;;6.03;2.28;;;19.70;21.10;;;;;;5118770;28;20032;-57
2023/10/31 01:20:07;;;;;;;2.53;0.77;;;19.60;21.50;;;;;;5118471;28;20594;-57
2023/10/31 01:22:33;;;;;;;1.02;0.77;;;19.60;20.10;;;;;;5100194;28;20020;-57
2023/10/31 01:24:58;;;;;;;2.35;0.63;;;19.50;20.80;;;;;;5100075;28;20023;-57
2023/10/31 01:27:24;;;;;;;2.72;0.70;;;19.50;21.20;;;;;;5118080;28;20039;-57
2023/10/31 01:29:50;;;;;;;2.90;0.70;;;19.60;19.50;;;;;;5118242;28;20024;-57
2023/10/31 01:32:16;;;;;;;3.55;0.75;;;19.50;21.80;;;;;;5099770;28;20031;-57
2023/10/31 01:34:41;;;;;;;1.35;0.80;;;19.20;25.20;;;;;;5118055;28;20031;-57
2023/10/31 01:37:07;;;;;;;3.53;0.95;;;19.10;25.60;;;;;;5118183;28;20025;-57
2023/10/31 01:39:35;;;;;;;2.08;1.00;;;18.80;28.00;;;;;;5118365;28;20027;-57
2023/10/31 01:42:01;;;;;;;3.75;1.52;;;18.80;25.60;;;;;;5099648;28;20024;-57
2023/10/31 01:44:27;;;;;;;4.07;1.70;;;18.80;25.80;;;;;;5118080;28;20114;-57
2023/10/31 01:46:52;;;;;;;4.53;1.58;;;18.70;28.50;;;;;;5099705;28;20036;-57
2023/10/31 01:49:20;;;;;;;5.13;1.92;;;18.50;31.50;;;;;;5118032;28;20072;-57
2023/10/31 01:51:47;;;;;;;5.90;1.38;;;18.20;33.50;;;;;;5099658;28;20023;-57
2023/10/31 01:54:14;;;;;;;2.45;1.10;;;18.00;30.30;;;;;;5117983;28;20031;-57
2023/10/31 01:56:41;;;;;;;3.15;1.55;;;17.80;33.70;;;;;;5098774;28;20076;-57
2023/10/31 01:59:07;;;;;;;2.25;0.82;;;17.50;34.30;;;;;;5098995;28;20035;-57
2023/10/31 02:01:38;;;;;;;4.50;1.40;;;17.50;30.80;;;;;;5099260;28;20031;-57
2023/10/31 02:04:05;;;;;;;19.02;6.22;;;17.50;31.00;;;;;;5117449;28;20032;-57
2023/10/31 02:06:31;;;;;;;6.47;2.10;;;17.50;31.10;;;;;;5117762;28;20027;-57
2023/10/31 02:08:57;;;;;;;9.45;2.65;;;17.50;30.30;;;;;;5099386;28;20039;-57
2023/10/31 02:11:22;;;;;;;3.28;1.33;;;17.40;32.70;;;;;;5099470;28;20036;-57
2023/10/31 02:13:48;;;;;;;2.70;1.10;;;17.50;30.10;;;;;;5099016;28;20034;-57
2023/10/31 02:16:15;;;;;;;1.63;1.02;;;17.40;33.30;;;;;;5099130;28;20070;-57
2023/10/31 02:18:41;;;;;;;2.42;1.40;;;17.50;31.80;;;;;;5117470;28;20052;-57
2023/10/31 02:21:07;;;;;;;4.35;1.35;;;17.20;34.30;;;;;;5098909;28;20066;-57
2023/10/31 02:23:32;;;;;;;5.22;1.33;;;17.10;34.70;;;;;;5117396;28;20032;-57
2023/10/31 02:25:58;;;;;;;2.65;1.40;;;17.00;36.20;;;;;;5099004;28;20080;-57
2023/10/31 02:28:27;;;;;;;2.25;1.23;;;16.90;37.80;;;;;;5117132;28;20035;-57
2023/10/31 02:30:54;;;;;;;2.58;1.20;;;16.80;37.80;;;;;;5117303;28;20023;-57
2023/10/31 02:33:20;;;;;;;5.55;1.48;;;16.70;38.50;;;;;;5117175;28;20031;-57
2023/10/31 02:35:46;;;;;;;3.45;1.35;;;16.40;41.20;;;;;;5098706;28;20032;-57
2023/10/31 02:38:13;;;;;;;3.38;1.20;;;16.40;42.80;;;;;;5117188;28;20557;-57
2023/10/31 02:40:39;;;;;;;3.70;1.52;;;16.10;42.90;;;;;;5117043;28;20072;-57
2023/10/31 02:43:05;;;;;;;2.92;1.42;;;16.10;44.10;;;;;;5098535;28;20039;-57
2023/10/31 02:45:30;;;;;;;4.25;1.75;;;15.80;45.10;;;;;;5098792;28;20375;-57
2023/10/31 02:47:56;;;;;;;2.97;1.50;;;15.80;46.20;;;;;;5098585;28;20027;-57
2023/10/31 02:50:23;;;;;;;3.22;1.50;;;15.60;48.40;;;;;;5098473;28;20028;-57
2023/10/31 02:52:51;;;;;;;4.00;1.90;;;15.60;49.10;;;;;;5116947;28;20032;-57
2023/10/31 02:55:17;;;;;;;7.97;2.08;;;15.50;48.30;;;;;;5112140;28;20042;-57
2023/10/31 02:57:43;;;;;;;4.07;1.65;;;15.50;50.10;;;;;;5098349;28;20031;-57
2023/10/31 03:00:09;;;;;;;4.90;1.77;;;15.50;50.00;;;;;;5116675;28;20388;-57
2023/10/31 03:02:35;;;;;;;4.60;1.85;;;15.50;50.20;;;;;;5116264;28;20023;-57
2023/10/31 03:05:01;;;;;;;4.60;1.73;;;15.40;52.00;;;;;;5112185;28;20774;-57
2023/10/31 03:07:27;;;;;;;8.13;2.08;;;15.10;53.00;;;;;;5096256;28;20036;-57
2023/10/31 03:09:54;;;;;;;5.47;2.17;;;15.10;53.40;;;;;;5077773;28;20039;-57
2023/10/31 03:12:20;;;;;;;4.25;2.15;;;15.10;54.40;;;;;;5095869;28;20032;-57
2023/10/31 03:14:45;;;;;;;8.27;2.58;;;14.90;55.10;;;;;;5077799;28;20027;-57
2023/10/31 03:17:11;;;;;;;7.28;3.20;;;14.90;54.10;;;;;;5095873;28;20032;-57
2023/10/31 03:19:37;;;;;;;7.40;3.70;;;14.80;54.20;;;;;;5077589;28;20053;-57
2023/10/31 03:22:03;;;;;;;8.60;3.92;;;14.80;56.40;;;;;;5095849;28;20094;-57
2023/10/31 03:24:29;;;;;;;4.18;2.63;;;14.80;54.10;;;;;;5077343;28;20032;-57
2023/10/31 03:26:55;;;;;;;4.63;2.38;;;14.80;54.40;;;;;;5114419;28;20162;-57
2023/10/31 03:29:21;;;;;;;3.28;1.88;;;14.70;56.80;;;;;;5116348;28;20446;-57
2023/10/31 03:31:47;;;;;;;10.57;4.30;;;14.70;58.80;;;;;;5116037;28;20384;-57
2023/10/31 03:34:12;;;;;;;6.63;2.63;;;14.70;58.60;;;;;;5115977;28;20019;-57
2023/10/31 03:36:38;;;;;;;6.30;2.42;;;14.60;58.20;;;;;;5116074;28;20492;-57
2023/10/31 03:39:04;;;;;;;5.70;3.22;;;14.60;59.30;;;;;;5097605;28;20051;-57
2023/10/31 03:41:30;;;;;;;8.25;2.60;;;14.50;58.90;;;;;;5115971;28;20024;-57
2023/10/31 03:43:56;;;;;;;6.95;2.60;;;14.50;60.00;;;;;;5116077;28;20024;-57
2023/10/31 03:46:21;;;;;;;5.90;1.70;;;14.40;61.30;;;;;;5116044;28;20023;-57
2023/10/31 03:48:47;;;;;;;6.13;2.75;;;14.40;59.30;;;;;;5097303;28;20040;-57
2023/10/31 03:51:13;;;;;;;5.03;1.90;;;14.40;61.30;;;;;;5097731;28;20081;-57
2023/10/31 03:53:39;;;;;;;9.15;3.25;;;14.40;61.70;;;;;;5097602;28;20115;-57
2023/10/31 03:56:05;;;;;;;12.88;4.53;;;14.50;61.80;;;;;;5097241;28;20035;-57
2023/10/31 03:58:31;;;;;;;46.08;15.23;;;14.50;61.10;;;;;;5097623;28;20028;-57
2023/10/31 04:00:57;;;;;;;31.98;9.55;;;14.50;61.60;;;;;;5097752;28;20119;-57
2023/10/31 04:03:23;;;;;;;9.63;3.00;;;14.50;59.90;;;;;;5097132;28;20071;-57
2023/10/31 04:05:49;;;;;;;11.63;3.45;;;14.60;56.40;;;;;;5115812;28;20024;-57
2023/10/31 04:08:15;;;;;;;34.47;11.38;;;14.70;54.60;;;;;;5097392;28;20028;-57
2023/10/31 04:10:41;;;;;;;25.17;8.00;;;14.80;58.30;;;;;;5097262;28;20039;-57
2023/10/31 04:13:07;;;;;;;21.83;5.78;;;14.80;57.70;;;;;;5097286;28;20064;-57
2023/10/31 04:15:34;;;;;;;25.33;8.18;;;14.90;59.00;;;;;;5115688;28;20069;-57
2023/10/31 04:18:00;;;;;;;20.25;7.63;;;14.80;59.20;;;;;;5115532;28;20024;-57
2023/10/31 04:20:26;;;;;;;9.48;3.83;;;14.80;63.20;;;;;;5116344;28;20156;-57
2023/10/31 04:22:51;;;;;;;14.70;5.55;;;14.80;63.30;;;;;;5119687;28;20028;-57
2023/10/31 04:25:17;;;;;;;5.82;2.55;;;15.10;61.80;;;;;;5119463;28;20020;-57
2023/10/31 04:27:43;;;;;;;4.68;2.40;;;15.20;52.90;;;;;;5119695;28;20028;-57
2023/10/31 04:30:09;;;;;;;6.75;2.35;;;15.30;58.10;;;;;;5119745;28;20032;-57
2023/10/31 04:32:35;;;;;;;10.77;2.72;;;15.20;57.50;;;;;;5119460;28;20031;-57
2023/10/31 04:35:01;;;;;;;6.38;2.63;;;15.30;54.40;;;;;;5119521;28;20019;-57
2023/10/31 04:37:27;;;;;;;7.70;2.80;;;15.30;54.30;;;;;;5119209;28;20039;-57
2023/10/31 04:39:53;;;;;;;9.48;3.30;;;15.40;55.80;;;;;;5119189;28;20050;-57
2023/10/31 04:42:20;;;;;;;8.63;2.95;;;15.50;55.70;;;;;;5119381;28;20020;-57
2023/10/31 04:44:46;;;;;;;6.57;2.03;;;15.60;52.80;;;;;;5119408;28;20019;-57
2023/10/31 04:47:12;;;;;;;10.40;3.20;;;16.00;46.50;;;;;;5119252;28;20078;-57
2023/10/31 04:49:37;;;;;;;7.32;2.10;;;16.30;46.60;;;;;;5119054;28;20493;-57
2023/10/31 04:52:04;;;;;;;7.10;2.20;;;16.60;44.50;;;;;;5119135;28;20372;-57
2023/10/31 04:54:29;;;;;;;5.05;0.90;;;16.80;43.50;;;;;;5118842;28;20457;-57
2023/10/31 04:56:55;;;;;;;3.25;1.13;;;17.90;37.80;;;;;;5119142;28;20039;-57
2023/10/31 04:59:21;;;;;;;3.00;0.80;;;18.50;37.60;;;;;;5119155;28;20084;-57
2023/10/31 05:01:51;;;;;;;7.95;0.98;;;19.20;35.60;;;;;;5118730;28;20031;-57
2023/10/31 05:04:18;;;;;;;6.85;1.30;;;19.40;36.00;;;;;;5118841;28;20036;-58
2023/10/31 05:06:44;;;;;;;3.22;1.13;;;19.60;34.80;;;;;;5118565;28;20089;-58
2023/10/31 05:09:10;;;;;;;8.05;1.40;;;19.90;34.00;;;;;;5118695;28;20023;-58
2023/10/31 05:11:36;;;;;;;5.20;1.67;;;20.00;34.90;;;;;;5118788;28;20039;-58
2023/10/31 05:14:02;;;;;;;7.93;1.13;;;20.00;34.40;;;;;;5118888;28;20377;-57
2023/10/31 05:16:28;;;;;;;2.80;1.40;;;20.20;34.40;;;;;;5118610;28;20031;-57
2023/10/31 05:18:53;;;;;;;7.10;1.25;;;20.20;34.10;;;;;;5118383;28;20039;-58
2023/10/31 05:21:23;;;;;;;8.35;1.40;;;20.30;34.20;;;;;;5118559;28;20072;-57
2023/10/31 05:23:49;;;;;;;7.77;1.50;;;20.40;33.80;;;;;;5118511;28;20027;-57
2023/10/31 05:26:15;;;;;;;5.15;1.70;;;20.40;34.60;;;;;;5105101;28;20024;-58
2023/10/31 05:28:40;;;;;;;7.38;1.58;;;20.30;35.00;;;;;;5098169;28;20031;-58
2023/10/31 05:31:06;;;;;;;8.80;1.73;;;20.20;35.30;;;;;;5097973;28;20089;-57
2023/10/31 05:33:32;;;;;;;5.07;1.20;;;20.20;35.00;;;;;;5096626;28;20439;-57
2023/10/31 05:35:58;;;;;;;3.63;1.23;;;20.20;35.30;;;;;;5097696;28;20028;-57
2023/10/31 05:38:23;;;;;;;9.63;1.70;;;20.20;34.70;;;;;;5098006;28;20392;-57
2023/10/31 05:40:49;;;;;;;3.17;1.10;;;20.30;34.60;;;;;;5097580;28;20465;-57
2023/10/31 05:43:15;;;;;;;4.70;1.13;;;20.30;34.90;;;;;;5097786;28;20028;-57
2023/10/31 05:45:41;;;;;;;4.75;1.05;;;20.40;34.30;;;;;;5097711;28;20036;-57
2023/10/31 05:48:07;;;;;;;5.45;1.15;;;20.40;34.50;;;;;;5097281;28;20024;-58
2023/10/31 05:50:32;;;;;;;7.20;1.85;;;20.70;35.10;;;;;;5097257;28;20044;-57
2023/10/31 05:52:58;;;;;;;15.18;1.70;;;20.90;35.70;;;;;;5097872;28;20068;-57
2023/10/31 05:55:24;;;;;;;10.93;1.75;;;21.10;36.10;;;;;;5097364;28;20527;-58
2023/10/31 05:57:50;;;;;;;6.22;1.20;;;21.20;36.40;;;;;;5097413;28;20024;-57
2023/10/31 06:00:16;;;;;;;7.40;1.58;;;21.20;36.40;;;;;;5097215;28;20398;-57
2023/10/31 06:02:41;;;;;;;11.18;1.88;;;21.30;36.70;;;;;;5097136;28;20028;-58
2023/10/31 06:05:08;;;;;;;6.70;1.30;;;21.40;36.60;;;;;;5097124;28;20035;-58
2023/10/31 06:07:34;;;;;;;6.28;1.48;;;21.40;36.50;;;;;;5097274;28;20020;-58
2023/10/31 06:09:59;;;;;;;7.93;1.67;;;21.50;36.50;;;;;;5097097;28;20032;-57
2023/10/31 06:12:27;;;;;;;8.60;1.98;;;21.60;36.00;;;;;;5096385;28;20424;-57
2023/10/31 06:14:52;;;;;;;7.07;1.73;;;21.70;35.90;;;;;;5096372;28;20393;-58
2023/10/31 06:17:18;;;;;;;11.80;1.92;;;21.80;35.80;;;;;;5095738;28;20024;-58
2023/10/31 06:19:45;;;;;;;12.40;2.78;;;21.80;36.00;;;;;;5093582;28;20028;-58
2023/10/31 06:22:11;;;;;;;8.93;2.03;;;21.90;36.50;;;;;;5081868;28;20073;-58
2023/10/31 06:24:37;;;;;;;13.00;3.80;;;21.80;36.70;;;;;;5105712;28;20031;-58
2023/10/31 06:27:03;;;;;;;17.23;4.00;;;21.70;37.00;;;;;;5097386;28;20035;-58
2023/10/31 06:29:29;;;;;;;18.40;4.20;;;21.60;38.00;;;;;;5097302;28;20022;-58
2023/10/31 06:31:55;;;;;;;18.27;4.93;;;21.60;38.60;;;;;;5096973;28;20036;-58
2023/10/31 06:34:20;;;;;;;15.20;3.72;;;21.50;38.70;;;;;;5094280;28;20055;-58
2023/10/31 06:36:46;;;;;;;16.15;3.20;;;21.30;39.40;;;;;;5097179;28;20031;-58
2023/10/31 06:39:12;;;;;;;12.10;2.42;;;21.30;41.00;;;;;;5103583;28;20104;-58
2023/10/31 06:41:38;;;;;;;16.10;3.63;;;21.20;40.40;;;;;;5117205;28;20042;-58
2023/10/31 06:44:04;;;;;;;12.75;3.10;;;21.20;40.00;;;;;;5107261;28;20380;-58
2023/10/31 06:46:29;;;;;;;20.52;4.32;;;21.10;41.20;;;;;;5096211;28;20123;-58
2023/10/31 06:48:55;;;;;;;21.63;3.53;;;21.00;43.10;;;;;;5096836;28;20028;-58
2023/10/31 06:51:21;;;;;;;14.40;3.35;;;20.90;44.10;;;;;;5102746;28;20487;-58
2023/10/31 06:53:47;;;;;;;18.83;4.20;;;20.80;43.60;;;;;;5115893;28;20031;-58
2023/10/31 06:56:13;;;;;;;19.05;4.10;;;20.80;45.20;;;;;;5113214;28;20501;-58
2023/10/31 06:58:38;;;;;;;15.45;3.35;;;20.70;48.30;;;;;;5114026;28;20043;-58
2023/10/31 07:01:04;;;;;;;12.65;4.07;;;20.60;49.20;;;;;;5101815;28;20024;-58
2023/10/31 07:03:30;;;;;;;15.65;5.03;;;20.50;48.60;;;;;;5115831;28;20046;-58
2023/10/31 07:05:56;;;;;;;16.10;4.03;;;20.40;49.50;;;;;;5116495;28;20020;-58
2023/10/31 07:08:23;;;;;;;9.82;3.30;;;20.40;49.60;;;;;;5116241;28;20174;-58
2023/10/31 07:10:49;;;;;;;23.23;6.93;;;20.20;52.30;;;;;;5116300;28;20365;-58
2023/10/31 07:13:14;;;;;;;23.13;6.10;;;20.20;52.40;;;;;;5116453;28;20104;-58
2023/10/31 07:15:40;;;;;;;23.50;5.65;;;20.10;52.60;;;;;;5116040;28;20484;-58
2023/10/31 07:18:07;;;;;;;20.02;5.05;;;20.10;51.60;;;;;;5115827;28;20484;-57
2023/10/31 07:20:33;;;;;;;26.73;5.30;;;20.20;54.00;;;;;;5109400;28;20058;-57
2023/10/31 07:22:59;;;;;;;19.45;4.88;;;20.20;53.50;;;;;;5095446;28;20059;-57
2023/10/31 07:25:25;;;;;;;31.92;7.07;;;20.10;54.80;;;;;;5095622;28;20032;-57
2023/10/31 07:27:51;;;;;;;30.38;8.05;;;20.10;52.10;;;;;;5095474;28;20108;-57
2023/10/31 07:30:16;;;;;;;21.15;6.10;;;20.20;52.80;;;;;;5094685;28;20024;-57
2023/10/31 07:32:42;;;;;;;27.67;7.28;;;20.00;54.60;;;;;;5094337;28;20042;-58
2023/10/31 07:35:09;;;;;;;34.22;12.65;;;20.10;55.70;;;;;;5094567;28;20051;-58
2023/10/31 07:37:35;;;;;;;32.85;11.32;;;19.90;54.70;;;;;;5094997;28;20036;-57
2023/10/31 07:40:01;;;;;;;31.02;10.32;;;20.00;56.70;;;;;;5099635;28;20063;-58
2023/10/31 07:42:27;;;;;;;26.13;8.35;;;20.00;56.40;;;;;;5104087;28;20024;-57
2023/10/31 07:44:52;;;;;;;27.13;9.27;;;20.00;56.40;;;;;;5104929;28;20012;-57
2023/10/31 07:47:18;;;;;;;32.65;7.88;;;20.00;56.50;;;;;;5099055;28;20039;-57
2023/10/31 07:49:44;;;;;;;26.88;7.90;;;20.00;56.70;;;;;;5094842;28;20592;-57
2023/10/31 07:52:10;;;;;;;28.05;8.73;;;20.00;58.20;;;;;;5095114;28;20032;-57
2023/10/31 07:54:40;;;;;;;24.85;6.63;;;20.10;58.10;;;;;;5093873;28;20389;-57
2023/10/31 07:57:06;;;;;;;35.80;9.55;;;20.00;57.20;;;;;;5094216;28;20024;-58
2023/10/31 07:59:35;;;;;;;27.20;8.00;;;20.10;55.70;;;;;;5094405;28;20357;-58
2023/10/31 08:02:02;;;;;;;24.73;6.25;;;20.20;55.80;;;;;;5094762;28;20065;-58
2023/10/31 08:04:29;;;;;;;24.42;6.45;;;20.30;56.50;;;;;;5115097;28;20541;-58
2023/10/31 08:06:55;;;;;;;21.23;5.97;;;20.30;57.80;;;;;;5115428;28;20031;-58
2023/10/31 08:09:21;;;;;;;19.45;5.40;;;20.30;56.30;;;;;;5115369;27;20126;-58
2023/10/31 08:11:47;;;;;;;25.45;6.50;;;20.40;58.20;;;;;;5135684;28;20495;-58
2023/10/31 08:14:15;;;;;;;18.65;5.25;;;20.40;58.90;;;;;;5135501;28;20035;-58
2023/10/31 08:16:41;;;;;;;18.30;5.35;;;20.40;59.20;;;;;;5136020;28;20023;-58
2023/10/31 08:19:07;;;;;;;21.13;5.35;;;20.40;58.60;;;;;;5136452;27;20031;-58
2023/10/31 08:21:35;;;;;;;17.88;5.10;;;20.30;61.60;;;;;;5136468;28;20376;-58
2023/10/31 08:24:05;;;;;;;33.03;10.20;;;20.30;61.40;;;;;;5136722;28;20034;-58
2023/10/31 08:26:34;;;;;;;25.73;7.65;;;20.20;60.40;;;;;;5107973;28;20032;-58
2023/10/31 08:29:00;;;;;;;25.38;7.38;;;20.20;61.40;;;;;;5087801;28;20031;-58
2023/10/31 08:31:26;;;;;;;31.90;7.43;;;20.30;60.30;;;;;;5078674;28;20032;-58
2023/10/31 08:33:51;;;;;;;21.30;6.18;;;20.30;61.70;;;;;;5092194;28;20103;-58
2023/10/31 08:36:17;;;;;;;17.17;4.72;;;20.40;61.30;;;;;;5082026;28;20030;-58
2023/10/31 08:38:44;;;;;;;26.80;4.93;;;20.50;57.90;;;;;;5093496;28;20916;-58
2023/10/31 08:41:10;;;;;;;30.67;5.30;;;20.70;57.60;;;;;;5108680;28;20051;-58
2023/10/31 08:43:38;;;;;;;24.80;4.78;;;21.00;55.10;;;;;;5114828;27;20046;-58
2023/10/31 08:49:53;;;;;;;23.58;4.95;;;21.30;55.70;;;;;;5073241;28;20032;-57
2023/10/31 08:52:19;;;;;;;21.23;4.90;;;21.30;55.20;;;;;;5094226;28;20024;-57
2023/10/31 08:54:44;;;;;;;20.60;5.07;;;21.50;55.50;;;;;;5094681;28;20398;-57
2023/10/31 08:57:10;;;;;;;23.20;4.25;;;21.40;57.40;;;;;;5099857;28;20020;-57
2023/10/31 08:59:36;;;;;;;22.35;4.45;;;21.40;54.70;;;;;;5099905;28;20111;-57
2023/10/31 09:02:02;;;;;;;21.00;4.88;;;21.60;53.30;;;;;;5097773;28;20023;-58
2023/10/31 09:04:28;;;;;;;18.40;3.67;;;21.70;52.80;;;;;;5105690;28;20547;-58
2023/10/31 09:06:54;;;;;;;33.95;6.30;;;21.70;51.90;;;;;;5104817;28;20024;-57
2023/10/31 09:09:19;;;;;;;25.77;4.80;;;21.80;53.30;;;;;;5107970;28;20020;-58
2023/10/31 09:11:45;;;;;;;29.05;5.95;;;21.80;53.30;;;;;;5108546;28;20032;-58
2023/10/31 09:14:11;;;;;;;19.17;4.93;;;21.90;53.60;;;;;;5107761;28;20047;-58
2023/10/31 09:16:37;;;;;;;23.98;6.40;;;21.90;52.60;;;;;;5101304;28;20030;-58
2023/10/31 09:19:02;;;;;;;33.55;6.15;;;22.00;53.50;;;;;;5102994;28;20036;-58
2023/10/31 09:21:28;;;;;;;27.40;6.13;;;22.00;55.00;;;;;;5106380;28;20035;-58
2023/10/31 09:23:54;;;;;;;18.65;4.60;;;22.00;54.40;;;;;;5097478;28;20082;-57
2023/10/31 09:26:20;;;;;;;20.92;4.78;;;22.10;52.60;;;;;;5098037;28;20043;-57
2023/10/31 09:28:49;;;;;;;30.45;7.00;;;22.20;52.50;;;;;;5097741;28;20024;-58
2023/10/31 09:31:18;;;;;;;35.28;5.78;;;22.20;56.20;;;;;;5097694;28;20024;-58
2023/10/31 09:33:45;;;;;;;35.40;6.18;;;22.20;56.70;;;;;;5097635;28;20024;-58
2023/10/31 09:36:12;;;;;;;45.92;8.82;;;22.20;56.50;;;;;;5097355;28;20039;-58
2023/10/31 09:38:38;;;;;;;28.90;6.03;;;22.10;58.10;;;;;;5097067;28;20028;-58
2023/10/31 09:41:04;;;;;;;26.83;5.50;;;22.00;59.20;;;;;;5104137;28;20062;-58
2023/10/31 09:43:31;;;;;;;26.67;5.88;;;22.00;60.00;;;;;;5109752;28;20477;-58
2023/10/31 09:45:57;;;;;;;34.55;7.55;;;22.00;60.20;;;;;;5106189;28;20019;-58
2023/10/31 09:48:24;;;;;;;24.70;6.72;;;21.90;60.10;;;;;;5104450;28;20036;-58
2023/10/31 09:50:50;;;;;;;31.67;7.88;;;21.80;61.60;;;;;;5107974;28;20031;-58
2023/10/31 09:53:18;;;;;;;26.58;7.72;;;21.80;59.30;;;;;;5101225;28;20381;-58
2023/10/31 09:55:46;;;;;;;34.08;6.20;;;22.00;59.50;;;;;;5097449;28;20024;-58
2023/10/31 09:58:12;;;;;;;21.08;5.85;;;22.20;54.60;;;;;;5096716;28;20044;-58
2023/10/31 10:00:40;;;;;;;30.23;7.10;;;22.60;53.20;;;;;;5097217;28;20035;-58
2023/10/31 10:03:12;;;;;;;22.40;6.00;;;23.00;52.50;;;;;;5096568;28;20067;-58
2023/10/31 10:05:40;;;;;;;25.25;6.15;;;23.20;52.70;;;;;;5101733;28;20024;-58
2023/10/31 10:08:07;;;;;;;35.85;7.40;;;23.30;52.20;;;;;;5097114;28;20035;-58
2023/10/31 10:10:34;;;;;;;23.67;5.80;;;23.50;52.60;;;;;;5099395;28;20036;-58
2023/10/31 10:13:02;;;;;;;30.80;6.18;;;23.70;50.20;;;;;;5095722;28;20020;-58
2023/10/31 10:15:28;;;;;;;27.73;6.80;;;23.80;50.40;;;;;;5096337;28;20032;-58
2023/10/31 10:17:54;;;;;;;29.85;6.05;;;23.90;51.00;;;;;;5078425;28;20032;-58
2023/10/31 10:20:20;;;;;;;30.63;6.30;;;24.00;51.40;;;;;;5100190;28;20024;-58
2023/10/31 10:22:46;;;;;;;19.23;4.75;;;24.20;50.40;;;;;;5082634;28;20023;-58
2023/10/31 10:25:18;;;;;;;24.63;5.57;;;24.20;49.90;;;;;;5097051;28;20028;-58
2023/10/31 10:27:47;;;;;;;37.28;7.60;;;24.40;51.00;;;;;;5097078;28;20031;-58
2023/10/31 10:30:15;;;;;;;28.70;6.78;;;24.50;51.30;;;;;;5096978;28;20462;-58
2023/10/31 10:32:41;;;;;;;23.58;6.25;;;24.60;49.50;;;;;;5095427;28;20058;-58
2023/10/31 10:35:08;;;;;;;30.02;7.40;;;24.60;48.60;;;;;;5094793;28;20489;-58
2023/10/31 10:37:38;;;;;;;39.88;8.02;;;24.70;50.30;;;;;;5096491;28;20445;-58
2023/10/31 10:40:10;;;;;;;31.95;8.27;;;24.90;52.30;;;;;;5096240;28;20386;-58
2023/10/31 10:42:46;;;;;;;38.65;8.50;;;25.10;53.90;;;;;;5096057;28;20032;-58
2023/10/31 10:45:15;;;;;;;26.67;6.53;;;25.30;52.20;;;;;;5096605;28;20026;-58
2023/10/31 10:47:46;;;;;;;21.58;5.93;;;24.90;52.60;;;;;;5094617;28;20032;-58
2023/10/31 10:50:13;;;;;;;26.60;6.53;;;25.00;53.70;;;;;;5095952;28;20537;-58
2023/10/31 10:52:45;;;;;;;22.77;5.97;;;25.00;56.30;;;;;;5095218;28;20032;-58
2023/10/31 10:55:19;;;;;;;30.48;7.25;;;25.00;53.00;;;;;;5096396;28;20393;-58
2023/10/31 10:57:50;;;;;;;27.77;6.95;;;25.00;53.40;;;;;;5095978;28;20036;-58
2023/10/31 11:00:17;;;;;;;32.88;7.25;;;24.90;52.00;;;;;;5095877;28;20032;-58
2023/10/31 11:02:43;;;;;;;45.63;8.10;;;24.90;55.40;;;;;;5096103;28;20047;-58
2023/10/31 11:05:09;;;;;;;27.60;6.65;;;24.90;54.20;;;;;;5095902;28;20528;-58
2023/10/31 11:07:38;;;;;;;31.88;7.43;;;24.80;55.70;;;;;;5096126;28;20032;-58
2023/10/31 11:10:05;;;;;;;27.30;6.07;;;24.80;53.40;;;;;;5095876;28;20047;-58
2023/10/31 11:12:32;;;;;;;31.02;7.20;;;25.00;52.20;;;;;;5092792;28;20051;-58
2023/10/31 11:15:00;;;;;;;28.38;5.38;;;25.10;53.00;;;;;;5096119;28;20063;-58
2023/10/31 11:17:35;;;;;;;27.80;6.18;;;25.20;48.80;;;;;;5095663;28;20028;-58
2023/10/31 11:20:03;;;;;;;25.77;6.10;;;25.20;49.20;;;;;;5075881;28;20075;-58
2023/10/31 11:22:43;;;;;;;29.42;7.43;;;25.30;52.80;;;;;;5086665;28;20035;-59
2023/10/31 11:25:14;;;;;;;;;;;25.30;49.90;;;;;;5096697;28;20378;-58
2023/10/31 11:27:41;;;;;;;25.55;6.03;;;25.40;51.00;;;;;;5095914;28;19934;-58
2023/10/31 11:30:28;;;;;;;20.95;6.55;;;25.50;51.20;;;;;;5096071;28;20020;-58
2023/10/31 11:33:01;;;;;;;28.25;7.40;;;25.50;50.70;;;;;;5096119;28;20470;-58
2023/10/31 11:35:30;;;;;;;26.85;7.38;;;25.40;50.30;;;;;;5093530;28;20036;-58
2023/10/31 11:38:03;;;;;;;25.77;6.55;;;25.50;51.80;;;;;;5094442;28;20385;-58
2023/10/31 11:40:29;;;;;;;25.00;6.97;;;25.50;51.40;;;;;;5095169;28;20064;-58
2023/10/31 11:43:01;;;;;;;28.08;7.05;;;25.40;52.20;;;;;;5095445;28;20481;-58
2023/10/31 11:45:37;;;;;;;31.92;7.18;;;25.30;51.90;;;;;;5095284;28;20024;-58
2023/10/31 11:48:04;;;;;;;32.80;7.22;;;25.00;52.10;;;;;;5095594;28;20047;-58
2023/10/31 11:50:32;;;;;;;27.58;5.90;;;24.80;54.40;;;;;;5092913;28;20020;-58
2023/10/31 11:53:06;;;;;;;31.45;6.10;;;24.80;49.00;;;;;;5094993;28;20028;-58
2023/10/31 11:55:37;;;;;;;25.58;5.32;;;24.80;50.00;;;;;;5095418;28;20040;-58
2023/10/31 11:58:20;;;;;;;24.75;5.28;;;24.80;50.10;;;;;;5109026;28;20090;-58
2023/10/31 12:00:48;;;;;;;26.13;5.75;;;24.80;50.80;;;;;;5109635;28;20098;-58
2023/10/31 12:03:19;;;;;;;28.50;5.50;;;24.80;51.30;;;;;;5098354;28;20032;-58
2023/10/31 12:06:12;;;;;;;19.35;3.55;;;24.80;51.60;;;;;;5093486;28;20024;-58
2023/10/31 12:08:40;;;;;;;13.70;3.42;;;24.70;50.00;;;;;;5094561;28;20366;-58
2023/10/31 12:11:13;;;;;;;24.67;5.75;;;24.80;48.70;;;;;;5096380;28;20127;-58
2023/10/31 12:13:41;;;;;;;17.67;3.53;;;25.00;50.00;;;;;;5094914;28;20032;-58
2023/10/31 12:16:09;;;;;;;16.50;3.45;;;25.20;49.60;;;;;;5094842;28;20063;-58
2023/10/31 12:18:35;;;;;;;18.25;3.45;;;25.30;48.80;;;;;;5099038;28;20195;-58
2023/10/31 12:21:02;;;;;;;22.65;4.28;;;25.30;48.10;;;;;;5097019;28;20488;-58
2023/10/31 12:23:28;;;;;;;17.25;4.60;;;25.20;48.80;;;;;;5095008;28;20032;-58
2023/10/31 12:25:54;;;;;;;21.88;4.80;;;25.30;48.70;;;;;;5096204;28;20381;-58
2023/10/31 12:28:24;;;;;;;18.48;4.03;;;25.30;48.80;;;;;;5096917;28;20047;-58
2023/10/31 12:30:54;;;;;;;23.48;4.82;;;25.30;47.70;;;;;;5094151;28;20020;-58
2023/10/31 12:33:22;;;;;;;18.92;4.10;;;25.30;48.50;;;;;;5091857;28;20016;-58
2023/10/31 12:35:49;;;;;;;16.60;3.17;;;25.30;48.50;;;;;;5093982;28;20485;-58
2023/10/31 12:38:16;;;;;;;19.38;4.03;;;25.30;47.70;;;;;;5096284;28;20091;-58
2023/10/31 12:40:44;;;;;;;20.58;3.40;;;25.20;47.80;;;;;;5093710;28;20024;-58
2023/10/31 12:43:10;;;;;;;16.42;3.42;;;25.20;48.10;;;;;;5098263;28;20031;-58